sensor_id;sensor_type;location;lat;lon;timestamp;temperature;humidity
32865;DHT22;19219;44.500;11.188;2022-08-24T00:01:07;20.80;99.90
32865;DHT22;19219;44.500;11.188;2022-08-24T00:03:34;20.80;99.90
32865;DHT22;19219;44.500;11.188;2022-08-24T00:06:00;20.80;99.90
32865;DHT22;19219;44.500;11.188;2022-08-24T00:08:26;20.80;99.90
32865;DHT22;19219;44.500;11.188;2022-08-24T00:10:53;20.80;99.90
32865;DHT22;19219;44.500;11.188;2022-08-24T00:13:18;20.90;99.90
32865;DHT22;19219;44.500;11.188;2022-08-24T00:15:45;21.00;99.90
32865;DHT22;19219;44.500;11.188;2022-08-24T00:18:11;21.00;99.90
32865;DHT22;19219;44.500;11.188;2022-08-24T00:20:37;21.00;99.90
32865;DHT22;19219;44.500;11.188;2022-08-24T00:23:04;21.00;99.90
32865;DHT22;19219;44.500;11.188;2022-08-24T00:25:30;20.90;99.90
32865;DHT22;19219;44.500;11.188;2022-08-24T00:27:56;20.80;99.90
32865;DHT22;19219;44.500;11.188;2022-08-24T00:30:22;20.70;99.90
32865;DHT22;19219;44.500;11.188;2022-08-24T00:32:48;20.60;99.90
32865;DHT22;19219;44.500;11.188;2022-08-24T00:35:16;20.50;99.90
32865;DHT22;19219;44.500;11.188;2022-08-24T00:37:43;20.40;99.90
32865;DHT22;19219;44.500;11.188;2022-08-24T00:42:46;20.30;99.90
32865;DHT22;19219;44.500;11.188;2022-08-24T00:45:13;20.20;99.90
32865;DHT22;19219;44.500;11.188;2022-08-24T00:47:44;20.20;99.90
32865;DHT22;19219;44.500;11.188;2022-08-24T00:50:16;20.20;99.90
32865;DHT22;19219;44.500;11.188;2022-08-24T00:52:57;20.20;99.90
32865;DHT22;19219;44.500;11.188;2022-08-24T00:55:35;20.20;99.90
32865;DHT22;19219;44.500;11.188;2022-08-24T00:58:06;20.20;99.90
32865;DHT22;19219;44.500;11.188;2022-08-24T01:00:40;20.20;99.90
32865;DHT22;19219;44.500;11.188;2022-08-24T01:03:06;20.20;99.90
32865;DHT22;19219;44.500;11.188;2022-08-24T01:05:34;20.20;99.90
32865;DHT22;19219;44.500;11.188;2022-08-24T01:08:02;20.20;99.90
32865;DHT22;19219;44.500;11.188;2022-08-24T01:10:31;20.20;99.90
32865;DHT22;19219;44.500;11.188;2022-08-24T01:13:01;20.20;99.90
32865;DHT22;19219;44.500;11.188;2022-08-24T01:15:34;20.20;99.90
32865;DHT22;19219;44.500;11.188;2022-08-24T01:18:03;20.20;99.90
32865;DHT22;19219;44.500;11.188;2022-08-24T01:20:54;20.20;99.90
32865;DHT22;19219;44.500;11.188;2022-08-24T01:23:38;20.20;99.90
32865;DHT22;19219;44.500;11.188;2022-08-24T01:26:06;20.20;99.90
32865;DHT22;19219;44.500;11.188;2022-08-24T01:28:33;20.20;99.90
32865;DHT22;19219;44.500;11.188;2022-08-24T01:31:01;20.20;99.90
32865;DHT22;19219;44.500;11.188;2022-08-24T01:33:30;20.20;99.90
32865;DHT22;19219;44.500;11.188;2022-08-24T01:36:00;20.20;99.90
32865;DHT22;19219;44.500;11.188;2022-08-24T01:38:27;20.20;99.90
32865;DHT22;19219;44.500;11.188;2022-08-24T01:40:57;20.10;99.90
32865;DHT22;19219;44.500;11.188;2022-08-24T01:43:24;20.20;99.90
32865;DHT22;19219;44.500;11.188;2022-08-24T01:45:50;20.20;99.90
32865;DHT22;19219;44.500;11.188;2022-08-24T01:48:16;20.20;99.90
32865;DHT22;19219;44.500;11.188;2022-08-24T01:50:42;20.10;99.90
32865;DHT22;19219;44.500;11.188;2022-08-24T01:53:08;20.10;99.90
32865;DHT22;19219;44.500;11.188;2022-08-24T01:55:34;20.10;99.90
32865;DHT22;19219;44.500;11.188;2022-08-24T01:58:00;20.00;99.90
32865;DHT22;19219;44.500;11.188;2022-08-24T02:00:27;20.10;99.90
32865;DHT22;19219;44.500;11.188;2022-08-24T02:02:53;20.00;99.90
32865;DHT22;19219;44.500;11.188;2022-08-24T02:05:21;20.00;99.90
32865;DHT22;19219;44.500;11.188;2022-08-24T02:07:48;19.90;99.90
32865;DHT22;19219;44.500;11.188;2022-08-24T02:10:15;19.70;99.90
32865;DHT22;19219;44.500;11.188;2022-08-24T02:12:42;19.70;99.90
32865;DHT22;19219;44.500;11.188;2022-08-24T02:15:09;19.60;99.90
32865;DHT22;19219;44.500;11.188;2022-08-24T02:17:35;19.60;99.90
32865;DHT22;19219;44.500;11.188;2022-08-24T02:20:03;19.50;99.90
32865;DHT22;19219;44.500;11.188;2022-08-24T02:22:29;19.50;99.90
32865;DHT22;19219;44.500;11.188;2022-08-24T02:24:55;19.40;99.90
32865;DHT22;19219;44.500;11.188;2022-08-24T02:27:20;19.40;99.90
32865;DHT22;19219;44.500;11.188;2022-08-24T02:29:46;19.40;99.90
32865;DHT22;19219;44.500;11.188;2022-08-24T02:32:12;19.50;99.90
32865;DHT22;19219;44.500;11.188;2022-08-24T02:34:38;19.50;99.90
32865;DHT22;19219;44.500;11.188;2022-08-24T02:37:05;19.60;99.90
32865;DHT22;19219;44.500;11.188;2022-08-24T02:39:30;19.50;99.90
32865;DHT22;19219;44.500;11.188;2022-08-24T02:41:56;19.50;99.90
32865;DHT22;19219;44.500;11.188;2022-08-24T02:44:22;19.40;99.90
32865;DHT22;19219;44.500;11.188;2022-08-24T02:46:48;19.40;99.90
32865;DHT22;19219;44.500;11.188;2022-08-24T02:49:14;19.40;99.90
32865;DHT22;19219;44.500;11.188;2022-08-24T02:51:42;19.50;99.90
32865;DHT22;19219;44.500;11.188;2022-08-24T02:54:08;19.40;99.90
32865;DHT22;19219;44.500;11.188;2022-08-24T02:56:34;19.40;99.90
32865;DHT22;19219;44.500;11.188;2022-08-24T02:59:01;19.30;99.90
32865;DHT22;19219;44.500;11.188;2022-08-24T03:01:28;19.40;99.90
32865;DHT22;19219;44.500;11.188;2022-08-24T03:03:54;19.40;99.90
32865;DHT22;19219;44.500;11.188;2022-08-24T03:06:20;19.30;99.90
32865;DHT22;19219;44.500;11.188;2022-08-24T03:08:45;19.30;99.90
32865;DHT22;19219;44.500;11.188;2022-08-24T03:11:11;19.20;99.90
32865;DHT22;19219;44.500;11.188;2022-08-24T03:13:38;19.20;99.90
32865;DHT22;19219;44.500;11.188;2022-08-24T03:16:05;19.20;99.90
32865;DHT22;19219;44.500;11.188;2022-08-24T03:18:31;19.10;99.90
32865;DHT22;19219;44.500;11.188;2022-08-24T03:20:59;19.10;99.90
32865;DHT22;19219;44.500;11.188;2022-08-24T03:23:25;19.10;99.90
32865;DHT22;19219;44.500;11.188;2022-08-24T03:25:52;19.10;99.90
32865;DHT22;19219;44.500;11.188;2022-08-24T03:28:20;19.10;99.90
32865;DHT22;19219;44.500;11.188;2022-08-24T03:30:46;19.10;99.90
32865;DHT22;19219;44.500;11.188;2022-08-24T03:33:12;19.10;99.90
32865;DHT22;19219;44.500;11.188;2022-08-24T03:35:38;19.20;99.90
32865;DHT22;19219;44.500;11.188;2022-08-24T03:38:04;19.20;99.90
32865;DHT22;19219;44.500;11.188;2022-08-24T03:40:30;19.30;99.90
32865;DHT22;19219;44.500;11.188;2022-08-24T03:42:59;19.40;99.90
32865;DHT22;19219;44.500;11.188;2022-08-24T03:45:25;19.30;99.90
32865;DHT22;19219;44.500;11.188;2022-08-24T03:47:51;19.30;99.90
32865;DHT22;19219;44.500;11.188;2022-08-24T03:50:18;19.30;99.90
32865;DHT22;19219;44.500;11.188;2022-08-24T03:52:45;19.20;99.90
32865;DHT22;19219;44.500;11.188;2022-08-24T03:55:10;19.20;99.90
32865;DHT22;19219;44.500;11.188;2022-08-24T03:57:36;19.10;99.90
32865;DHT22;19219;44.500;11.188;2022-08-24T04:00:05;19.10;99.90
32865;DHT22;19219;44.500;11.188;2022-08-24T04:02:31;19.20;99.90
32865;DHT22;19219;44.500;11.188;2022-08-24T04:04:58;19.20;99.90
32865;DHT22;19219;44.500;11.188;2022-08-24T04:07:23;19.10;99.90
32865;DHT22;19219;44.500;11.188;2022-08-24T04:09:49;19.20;99.90
32865;DHT22;19219;44.500;11.188;2022-08-24T04:12:15;19.20;99.90
32865;DHT22;19219;44.500;11.188;2022-08-24T04:14:40;19.10;99.90
32865;DHT22;19219;44.500;11.188;2022-08-24T04:17:06;19.10;99.90
32865;DHT22;19219;44.500;11.188;2022-08-24T04:19:33;19.00;99.90
32865;DHT22;19219;44.500;11.188;2022-08-24T04:21:59;18.90;99.90
32865;DHT22;19219;44.500;11.188;2022-08-24T04:24:26;18.80;99.90
32865;DHT22;19219;44.500;11.188;2022-08-24T04:26:52;18.80;99.90
32865;DHT22;19219;44.500;11.188;2022-08-24T04:29:19;18.70;99.90
32865;DHT22;19219;44.500;11.188;2022-08-24T04:31:45;18.80;99.90
32865;DHT22;19219;44.500;11.188;2022-08-24T04:34:13;18.80;99.90
32865;DHT22;19219;44.500;11.188;2022-08-24T04:36:40;18.80;99.90
32865;DHT22;19219;44.500;11.188;2022-08-24T04:39:06;18.80;99.90
32865;DHT22;19219;44.500;11.188;2022-08-24T04:41:32;18.90;99.90
32865;DHT22;19219;44.500;11.188;2022-08-24T04:43:58;18.90;99.90
32865;DHT22;19219;44.500;11.188;2022-08-24T04:46:24;18.80;99.90
32865;DHT22;19219;44.500;11.188;2022-08-24T04:48:50;18.80;99.90
32865;DHT22;19219;44.500;11.188;2022-08-24T04:51:17;18.90;99.90
32865;DHT22;19219;44.500;11.188;2022-08-24T04:53:44;18.90;99.90
32865;DHT22;19219;44.500;11.188;2022-08-24T04:56:19;19.00;99.90
32865;DHT22;19219;44.500;11.188;2022-08-24T04:58:44;19.10;99.90
32865;DHT22;19219;44.500;11.188;2022-08-24T05:01:19;19.10;99.90
32865;DHT22;19219;44.500;11.188;2022-08-24T05:03:46;19.20;99.90
32865;DHT22;19219;44.500;11.188;2022-08-24T05:06:15;19.20;99.90
32865;DHT22;19219;44.500;11.188;2022-08-24T05:08:42;19.10;99.90
32865;DHT22;19219;44.500;11.188;2022-08-24T05:11:08;19.20;99.90
32865;DHT22;19219;44.500;11.188;2022-08-24T05:13:35;19.20;99.90
32865;DHT22;19219;44.500;11.188;2022-08-24T05:16:07;19.20;99.90
32865;DHT22;19219;44.500;11.188;2022-08-24T05:18:33;19.20;99.90
32865;DHT22;19219;44.500;11.188;2022-08-24T05:20:59;19.20;99.90
32865;DHT22;19219;44.500;11.188;2022-08-24T05:23:25;19.20;99.90
32865;DHT22;19219;44.500;11.188;2022-08-24T05:25:51;19.30;99.90
32865;DHT22;19219;44.500;11.188;2022-08-24T05:28:17;19.40;99.90
32865;DHT22;19219;44.500;11.188;2022-08-24T05:30:43;19.50;99.90
32865;DHT22;19219;44.500;11.188;2022-08-24T05:33:10;19.60;99.90
32865;DHT22;19219;44.500;11.188;2022-08-24T05:35:39;19.60;99.90
32865;DHT22;19219;44.500;11.188;2022-08-24T05:38:05;19.70;99.90
32865;DHT22;19219;44.500;11.188;2022-08-24T05:40:31;19.80;99.90
32865;DHT22;19219;44.500;11.188;2022-08-24T05:42:57;19.90;99.90
32865;DHT22;19219;44.500;11.188;2022-08-24T05:45:22;20.00;99.90
32865;DHT22;19219;44.500;11.188;2022-08-24T05:47:48;20.00;99.90
32865;DHT22;19219;44.500;11.188;2022-08-24T05:50:14;20.10;99.90
32865;DHT22;19219;44.500;11.188;2022-08-24T05:52:40;20.20;99.90
32865;DHT22;19219;44.500;11.188;2022-08-24T05:55:06;20.30;99.90
32865;DHT22;19219;44.500;11.188;2022-08-24T05:57:34;20.40;99.90
32865;DHT22;19219;44.500;11.188;2022-08-24T06:00:00;20.60;99.90
32865;DHT22;19219;44.500;11.188;2022-08-24T06:02:26;20.70;99.90
32865;DHT22;19219;44.500;11.188;2022-08-24T06:04:53;20.90;99.90
32865;DHT22;19219;44.500;11.188;2022-08-24T06:07:19;21.10;99.90
32865;DHT22;19219;44.500;11.188;2022-08-24T06:09:44;21.30;99.90
32865;DHT22;19219;44.500;11.188;2022-08-24T06:12:10;21.50;99.90
32865;DHT22;19219;44.500;11.188;2022-08-24T06:14:36;21.80;99.90
32865;DHT22;19219;44.500;11.188;2022-08-24T06:17:07;22.00;99.90
32865;DHT22;19219;44.500;11.188;2022-08-24T06:19:34;22.30;99.90
32865;DHT22;19219;44.500;11.188;2022-08-24T06:21:59;22.80;99.90
32865;DHT22;19219;44.500;11.188;2022-08-24T06:24:26;23.30;99.90
32865;DHT22;19219;44.500;11.188;2022-08-24T06:27:12;23.80;99.90
32865;DHT22;19219;44.500;11.188;2022-08-24T06:29:55;24.30;99.90
32865;DHT22;19219;44.500;11.188;2022-08-24T06:32:21;24.90;99.90
32865;DHT22;19219;44.500;11.188;2022-08-24T06:34:47;25.20;99.90
32865;DHT22;19219;44.500;11.188;2022-08-24T06:37:13;25.60;99.90
32865;DHT22;19219;44.500;11.188;2022-08-24T06:39:38;26.00;99.90
32865;DHT22;19219;44.500;11.188;2022-08-24T06:42:04;26.20;99.90
32865;DHT22;19219;44.500;11.188;2022-08-24T06:44:31;26.60;99.90
32865;DHT22;19219;44.500;11.188;2022-08-24T06:46:57;26.70;99.90
32865;DHT22;19219;44.500;11.188;2022-08-24T06:49:22;27.00;99.90
32865;DHT22;19219;44.500;11.188;2022-08-24T06:51:49;27.20;99.90
32865;DHT22;19219;44.500;11.188;2022-08-24T06:54:16;27.20;99.90
32865;DHT22;19219;44.500;11.188;2022-08-24T06:56:42;27.20;99.90
32865;DHT22;19219;44.500;11.188;2022-08-24T06:59:07;27.40;99.90
32865;DHT22;19219;44.500;11.188;2022-08-24T07:01:33;27.80;99.90
32865;DHT22;19219;44.500;11.188;2022-08-24T07:03:59;28.10;99.90
32865;DHT22;19219;44.500;11.188;2022-08-24T07:06:25;28.20;99.90
32865;DHT22;19219;44.500;11.188;2022-08-24T07:08:52;28.40;99.90
32865;DHT22;19219;44.500;11.188;2022-08-24T07:11:18;28.20;99.90
32865;DHT22;19219;44.500;11.188;2022-08-24T07:13:45;28.40;99.90
32865;DHT22;19219;44.500;11.188;2022-08-24T07:16:13;28.90;99.90
32865;DHT22;19219;44.500;11.188;2022-08-24T07:18:39;29.10;99.90
32865;DHT22;19219;44.500;11.188;2022-08-24T07:21:05;29.10;99.90
32865;DHT22;19219;44.500;11.188;2022-08-24T07:23:31;28.90;99.90
32865;DHT22;19219;44.500;11.188;2022-08-24T07:26:04;29.30;99.90
32865;DHT22;19219;44.500;11.188;2022-08-24T07:28:30;29.90;99.50
32865;DHT22;19219;44.500;11.188;2022-08-24T07:30:55;30.50;99.00
32865;DHT22;19219;44.500;11.188;2022-08-24T07:33:22;30.80;97.90
32865;DHT22;19219;44.500;11.188;2022-08-24T07:35:47;30.80;98.10
32865;DHT22;19219;44.500;11.188;2022-08-24T07:38:13;31.10;97.60
32865;DHT22;19219;44.500;11.188;2022-08-24T07:40:39;31.20;96.60
32865;DHT22;19219;44.500;11.188;2022-08-24T07:43:05;30.90;96.30
32865;DHT22;19219;44.500;11.188;2022-08-24T07:45:30;30.60;97.50
32865;DHT22;19219;44.500;11.188;2022-08-24T07:47:57;30.40;97.10
32865;DHT22;19219;44.500;11.188;2022-08-24T07:50:23;30.60;98.20
32865;DHT22;19219;44.500;11.188;2022-08-24T07:52:49;30.70;96.60
32865;DHT22;19219;44.500;11.188;2022-08-24T07:55:16;30.90;97.40
32865;DHT22;19219;44.500;11.188;2022-08-24T07:57:41;31.30;96.50
32865;DHT22;19219;44.500;11.188;2022-08-24T08:00:12;31.30;95.80
32865;DHT22;19219;44.500;11.188;2022-08-24T08:02:39;31.50;96.30
32865;DHT22;19219;44.500;11.188;2022-08-24T08:05:07;31.70;95.50
32865;DHT22;19219;44.500;11.188;2022-08-24T08:07:33;32.00;95.10
32865;DHT22;19219;44.500;11.188;2022-08-24T08:10:06;32.00;94.60
32865;DHT22;19219;44.500;11.188;2022-08-24T08:12:32;31.90;94.50
32865;DHT22;19219;44.500;11.188;2022-08-24T08:14:58;32.10;94.60
32865;DHT22;19219;44.500;11.188;2022-08-24T08:17:24;32.20;94.40
32865;DHT22;19219;44.500;11.188;2022-08-24T08:19:49;31.80;94.70
32865;DHT22;19219;44.500;11.188;2022-08-24T08:22:15;31.80;94.80
32865;DHT22;19219;44.500;11.188;2022-08-24T08:24:59;32.10;94.60
32865;DHT22;19219;44.500;11.188;2022-08-24T08:27:24;32.20;94.30
32865;DHT22;19219;44.500;11.188;2022-08-24T08:29:50;32.40;94.50
32865;DHT22;19219;44.500;11.188;2022-08-24T08:32:17;32.70;93.90
32865;DHT22;19219;44.500;11.188;2022-08-24T08:34:45;32.60;93.70
32865;DHT22;19219;44.500;11.188;2022-08-24T08:37:12;32.80;93.80
32865;DHT22;19219;44.500;11.188;2022-08-24T08:39:39;33.10;93.60
32865;DHT22;19219;44.500;11.188;2022-08-24T08:48:48;32.80;93.20
32865;DHT22;19219;44.500;11.188;2022-08-24T08:54:27;32.50;93.00
32865;DHT22;19219;44.500;11.188;2022-08-24T09:19:55;33.10;90.90
32865;DHT22;19219;44.500;11.188;2022-08-24T09:22:23;33.10;90.70
32865;DHT22;19219;44.500;11.188;2022-08-24T09:35:25;32.70;90.70
32865;DHT22;19219;44.500;11.188;2022-08-24T09:47:02;32.80;88.60
32865;DHT22;19219;44.500;11.188;2022-08-24T09:49:56;32.80;89.40
32865;DHT22;19219;44.500;11.188;2022-08-24T09:53:07;32.80;90.40
32865;DHT22;19219;44.500;11.188;2022-08-24T10:01:35;32.20;89.50
32865;DHT22;19219;44.500;11.188;2022-08-24T10:07:11;32.20;88.90
32865;DHT22;19219;44.500;11.188;2022-08-24T10:12:53;32.40;88.90
32865;DHT22;19219;44.500;11.188;2022-08-24T10:20:27;32.10;88.40
32865;DHT22;19219;44.500;11.188;2022-08-24T10:31:03;32.50;88.30
32865;DHT22;19219;44.500;11.188;2022-08-24T10:42:40;32.60;87.10
32865;DHT22;19219;44.500;11.188;2022-08-24T10:53:35;31.30;90.00
32865;DHT22;19219;44.500;11.188;2022-08-24T10:56:13;31.10;90.20
32865;DHT22;19219;44.500;11.188;2022-08-24T11:01:37;31.60;90.30
32865;DHT22;19219;44.500;11.188;2022-08-24T11:04:10;31.80;90.60
32865;DHT22;19219;44.500;11.188;2022-08-24T11:06:41;32.00;89.80
32865;DHT22;19219;44.500;11.188;2022-08-24T11:09:14;32.00;88.90
32865;DHT22;19219;44.500;11.188;2022-08-24T11:11:44;32.00;90.20
32865;DHT22;19219;44.500;11.188;2022-08-24T11:16:47;31.50;90.60
32865;DHT22;19219;44.500;11.188;2022-08-24T11:19:34;31.40;91.10
32865;DHT22;19219;44.500;11.188;2022-08-24T11:22:06;31.60;91.10
32865;DHT22;19219;44.500;11.188;2022-08-24T11:24:46;31.60;91.40
32865;DHT22;19219;44.500;11.188;2022-08-24T11:32:32;30.80;91.10
32865;DHT22;19219;44.500;11.188;2022-08-24T11:35:27;30.50;91.10
32865;DHT22;19219;44.500;11.188;2022-08-24T11:38:16;30.40;91.80
32865;DHT22;19219;44.500;11.188;2022-08-24T11:40:49;30.60;91.80
32865;DHT22;19219;44.500;11.188;2022-08-24T11:46:17;30.60;92.60
32865;DHT22;19219;44.500;11.188;2022-08-24T12:00:05;30.80;90.60
32865;DHT22;19219;44.500;11.188;2022-08-24T12:02:42;30.90;90.60
32865;DHT22;19219;44.500;11.188;2022-08-24T12:16:19;31.00;90.70
32865;DHT22;19219;44.500;11.188;2022-08-24T12:21:20;31.10;90.80
32865;DHT22;19219;44.500;11.188;2022-08-24T12:24:08;31.10;90.50
32865;DHT22;19219;44.500;11.188;2022-08-24T12:26:46;31.00;90.50
32865;DHT22;19219;44.500;11.188;2022-08-24T12:32:15;31.40;90.80
32865;DHT22;19219;44.500;11.188;2022-08-24T12:34:52;31.30;90.20
32865;DHT22;19219;44.500;11.188;2022-08-24T12:37:41;31.10;89.60
32865;DHT22;19219;44.500;11.188;2022-08-24T12:45:34;30.50;90.30
32865;DHT22;19219;44.500;11.188;2022-08-24T12:58:36;30.50;90.90
32865;DHT22;19219;44.500;11.188;2022-08-24T13:01:10;30.70;90.60
32865;DHT22;19219;44.500;11.188;2022-08-24T13:03:40;30.80;89.30
32865;DHT22;19219;44.500;11.188;2022-08-24T13:06:17;30.90;88.40
32865;DHT22;19219;44.500;11.188;2022-08-24T13:08:48;31.00;86.90
32865;DHT22;19219;44.500;11.188;2022-08-24T13:11:41;31.00;87.00
32865;DHT22;19219;44.500;11.188;2022-08-24T13:14:22;31.10;84.70
32865;DHT22;19219;44.500;11.188;2022-08-24T13:22:45;31.30;84.70
32865;DHT22;19219;44.500;11.188;2022-08-24T13:24:57;31.20;84.70
32865;DHT22;19219;44.500;11.188;2022-08-24T13:30:03;31.10;83.80
32865;DHT22;19219;44.500;11.188;2022-08-24T13:32:38;31.10;84.20
32865;DHT22;19219;44.500;11.188;2022-08-24T13:38:37;31.00;83.50
32865;DHT22;19219;44.500;11.188;2022-08-24T13:41:44;31.00;82.80
32865;DHT22;19219;44.500;11.188;2022-08-24T13:47:05;31.00;83.40
32865;DHT22;19219;44.500;11.188;2022-08-24T13:52:36;31.20;81.90
32865;DHT22;19219;44.500;11.188;2022-08-24T13:55:36;31.20;81.20
32865;DHT22;19219;44.500;11.188;2022-08-24T14:00:58;31.30;81.20
32865;DHT22;19219;44.500;11.188;2022-08-24T14:12:14;31.10;77.60
32865;DHT22;19219;44.500;11.188;2022-08-24T14:18:28;31.30;78.20
32865;DHT22;19219;44.500;11.188;2022-08-24T14:21:07;31.40;78.90
32865;DHT22;19219;44.500;11.188;2022-08-24T14:37:16;31.00;79.00
32865;DHT22;19219;44.500;11.188;2022-08-24T14:42:54;30.70;78.30
32865;DHT22;19219;44.500;11.188;2022-08-24T15:00:12;31.20;79.10
32865;DHT22;19219;44.500;11.188;2022-08-24T15:07:58;31.20;77.90
32865;DHT22;19219;44.500;11.188;2022-08-24T15:10:28;31.30;78.40
32865;DHT22;19219;44.500;11.188;2022-08-24T15:15:28;31.30;79.00
32865;DHT22;19219;44.500;11.188;2022-08-24T15:19:17;31.40;77.00
32865;DHT22;19219;44.500;11.188;2022-08-24T15:30:05;31.10;78.50
32865;DHT22;19219;44.500;11.188;2022-08-24T15:32:42;31.10;78.20
32865;DHT22;19219;44.500;11.188;2022-08-24T15:35:26;31.10;77.90
32865;DHT22;19219;44.500;11.188;2022-08-24T15:37:52;31.10;77.10
32865;DHT22;19219;44.500;11.188;2022-08-24T15:40:28;31.00;76.00
32865;DHT22;19219;44.500;11.188;2022-08-24T15:42:59;30.90;76.30
32865;DHT22;19219;44.500;11.188;2022-08-24T15:45:28;30.90;76.20
32865;DHT22;19219;44.500;11.188;2022-08-24T15:47:56;30.90;78.40
32865;DHT22;19219;44.500;11.188;2022-08-24T15:50:32;30.80;77.80
32865;DHT22;19219;44.500;11.188;2022-08-24T15:53:06;30.90;77.30
32865;DHT22;19219;44.500;11.188;2022-08-24T15:55:42;30.70;77.30
32865;DHT22;19219;44.500;11.188;2022-08-24T15:58:18;30.60;78.00
32865;DHT22;19219;44.500;11.188;2022-08-24T16:00:46;30.60;77.60
32865;DHT22;19219;44.500;11.188;2022-08-24T16:03:49;30.60;78.00
32865;DHT22;19219;44.500;11.188;2022-08-24T16:11:34;30.50;77.60
32865;DHT22;19219;44.500;11.188;2022-08-24T16:14:04;30.50;78.10
32865;DHT22;19219;44.500;11.188;2022-08-24T16:16:37;30.50;77.30
32865;DHT22;19219;44.500;11.188;2022-08-24T16:19:04;30.40;77.80
32865;DHT22;19219;44.500;11.188;2022-08-24T16:32:29;30.20;76.70
32865;DHT22;19219;44.500;11.188;2022-08-24T16:37:35;30.20;78.50
32865;DHT22;19219;44.500;11.188;2022-08-24T16:40:03;30.20;76.50
32865;DHT22;19219;44.500;11.188;2022-08-24T16:42:29;30.10;77.30
32865;DHT22;19219;44.500;11.188;2022-08-24T16:44:56;30.00;77.10
32865;DHT22;19219;44.500;11.188;2022-08-24T16:47:23;30.00;77.40
32865;DHT22;19219;44.500;11.188;2022-08-24T16:49:49;30.00;78.30
32865;DHT22;19219;44.500;11.188;2022-08-24T16:52:16;30.00;78.10
32865;DHT22;19219;44.500;11.188;2022-08-24T16:54:43;29.90;77.60
32865;DHT22;19219;44.500;11.188;2022-08-24T16:57:30;29.90;78.20
32865;DHT22;19219;44.500;11.188;2022-08-24T16:59:56;29.90;79.90
32865;DHT22;19219;44.500;11.188;2022-08-24T17:02:23;29.90;79.20
32865;DHT22;19219;44.500;11.188;2022-08-24T17:04:50;29.90;79.30
32865;DHT22;19219;44.500;11.188;2022-08-24T17:07:20;29.80;78.80
32865;DHT22;19219;44.500;11.188;2022-08-24T17:09:46;29.80;80.50
32865;DHT22;19219;44.500;11.188;2022-08-24T17:12:13;29.70;79.90
32865;DHT22;19219;44.500;11.188;2022-08-24T17:14:39;29.70;80.60
32865;DHT22;19219;44.500;11.188;2022-08-24T17:17:11;29.70;80.00
32865;DHT22;19219;44.500;11.188;2022-08-24T17:19:38;29.60;80.10
32865;DHT22;19219;44.500;11.188;2022-08-24T17:22:05;29.60;80.60
32865;DHT22;19219;44.500;11.188;2022-08-24T17:24:31;29.50;80.60
32865;DHT22;19219;44.500;11.188;2022-08-24T17:26:58;29.40;81.30
32865;DHT22;19219;44.500;11.188;2022-08-24T17:29:24;29.40;82.00
32865;DHT22;19219;44.500;11.188;2022-08-24T17:31:50;29.30;82.40
32865;DHT22;19219;44.500;11.188;2022-08-24T17:34:18;29.40;82.30
32865;DHT22;19219;44.500;11.188;2022-08-24T17:36:49;29.30;81.90
32865;DHT22;19219;44.500;11.188;2022-08-24T17:39:16;29.30;82.70
32865;DHT22;19219;44.500;11.188;2022-08-24T17:41:42;29.20;82.90
32865;DHT22;19219;44.500;11.188;2022-08-24T17:44:11;29.10;82.90
32865;DHT22;19219;44.500;11.188;2022-08-24T17:46:38;29.00;83.60
32865;DHT22;19219;44.500;11.188;2022-08-24T17:49:06;29.00;84.10
32865;DHT22;19219;44.500;11.188;2022-08-24T17:51:32;28.90;84.00
32865;DHT22;19219;44.500;11.188;2022-08-24T17:53:58;28.90;84.30
32865;DHT22;19219;44.500;11.188;2022-08-24T17:56:26;28.80;85.40
32865;DHT22;19219;44.500;11.188;2022-08-24T17:58:54;28.80;86.00
32865;DHT22;19219;44.500;11.188;2022-08-24T18:01:38;28.80;86.30
32865;DHT22;19219;44.500;11.188;2022-08-24T18:04:04;28.60;86.10
32865;DHT22;19219;44.500;11.188;2022-08-24T18:06:30;28.50;86.60
32865;DHT22;19219;44.500;11.188;2022-08-24T18:09:02;28.50;87.10
32865;DHT22;19219;44.500;11.188;2022-08-24T18:11:28;28.40;86.70
32865;DHT22;19219;44.500;11.188;2022-08-24T18:13:55;28.40;87.20
32865;DHT22;19219;44.500;11.188;2022-08-24T18:16:23;28.30;87.60
32865;DHT22;19219;44.500;11.188;2022-08-24T18:18:50;28.20;87.40
32865;DHT22;19219;44.500;11.188;2022-08-24T18:21:17;28.20;88.20
32865;DHT22;19219;44.500;11.188;2022-08-24T18:23:44;28.10;88.20
32865;DHT22;19219;44.500;11.188;2022-08-24T18:26:10;28.10;89.20
32865;DHT22;19219;44.500;11.188;2022-08-24T18:28:36;28.00;89.00
32865;DHT22;19219;44.500;11.188;2022-08-24T18:31:02;27.90;90.30
32865;DHT22;19219;44.500;11.188;2022-08-24T18:33:28;27.80;90.60
32865;DHT22;19219;44.500;11.188;2022-08-24T18:35:53;27.70;90.90
32865;DHT22;19219;44.500;11.188;2022-08-24T18:38:19;27.60;91.60
32865;DHT22;19219;44.500;11.188;2022-08-24T18:40:45;27.40;93.50
32865;DHT22;19219;44.500;11.188;2022-08-24T18:43:11;27.00;94.40
32865;DHT22;19219;44.500;11.188;2022-08-24T18:45:39;26.80;94.60
32865;DHT22;19219;44.500;11.188;2022-08-24T18:48:05;26.70;95.20
32865;DHT22;19219;44.500;11.188;2022-08-24T18:50:31;26.60;95.70
32865;DHT22;19219;44.500;11.188;2022-08-24T18:52:58;26.50;96.50
32865;DHT22;19219;44.500;11.188;2022-08-24T18:55:24;26.30;97.10
32865;DHT22;19219;44.500;11.188;2022-08-24T18:57:51;26.20;98.20
32865;DHT22;19219;44.500;11.188;2022-08-24T19:00:17;26.00;99.30
32865;DHT22;19219;44.500;11.188;2022-08-24T19:02:43;25.80;99.90
32865;DHT22;19219;44.500;11.188;2022-08-24T19:07:39;25.60;99.90
32865;DHT22;19219;44.500;11.188;2022-08-24T19:10:07;25.40;99.90
32865;DHT22;19219;44.500;11.188;2022-08-24T19:12:37;25.40;99.90
32865;DHT22;19219;44.500;11.188;2022-08-24T19:15:03;25.30;99.90
32865;DHT22;19219;44.500;11.188;2022-08-24T19:17:29;25.10;99.90
32865;DHT22;19219;44.500;11.188;2022-08-24T19:19:55;25.10;99.90
32865;DHT22;19219;44.500;11.188;2022-08-24T19:22:21;25.10;99.90
32865;DHT22;19219;44.500;11.188;2022-08-24T19:24:47;25.00;99.90
32865;DHT22;19219;44.500;11.188;2022-08-24T19:27:14;25.00;99.90
32865;DHT22;19219;44.500;11.188;2022-08-24T19:29:40;24.90;99.90
32865;DHT22;19219;44.500;11.188;2022-08-24T19:32:07;24.80;99.90
32865;DHT22;19219;44.500;11.188;2022-08-24T19:34:33;24.70;99.90
32865;DHT22;19219;44.500;11.188;2022-08-24T19:36:59;24.70;99.90
32865;DHT22;19219;44.500;11.188;2022-08-24T19:39:24;24.60;99.90
32865;DHT22;19219;44.500;11.188;2022-08-24T19:41:51;24.50;99.90
32865;DHT22;19219;44.500;11.188;2022-08-24T19:44:18;24.40;99.90